createdAt,value
2022-11-04T00:00:30.146Z,12.50
2022-11-04T00:02:58.688Z,11.77
2022-11-04T00:05:26.745Z,11.13
2022-11-04T00:08:13.740Z,9.50
2022-11-04T00:10:58.890Z,8.80
2022-11-04T00:13:26.969Z,8.83
2022-11-04T00:16:12.460Z,7.90
2022-11-04T00:18:40.489Z,8.33
2022-11-04T00:21:26.286Z,7.50
2022-11-04T00:24:13.038Z,7.80
2022-11-04T00:26:54.932Z,7.97
2022-11-04T00:29:23.129Z,8.20
2022-11-04T00:32:23.535Z,7.20
2022-11-04T00:34:51.677Z,8.13
2022-11-04T00:37:19.866Z,6.97
2022-11-04T00:39:49.280Z,6.73
2022-11-04T00:42:17.396Z,6.13
2022-11-04T00:44:45.642Z,6.70
2022-11-04T00:47:13.793Z,7.50
2022-11-04T00:49:43.662Z,6.00
2022-11-04T00:52:11.754Z,7.83
2022-11-04T00:54:39.826Z,6.70
2022-11-04T00:57:11.985Z,5.83
2022-11-04T00:59:40.686Z,6.87
2022-11-04T01:02:11.037Z,5.90
2022-11-04T01:04:39.204Z,6.77
2022-11-04T01:07:07.430Z,5.53
2022-11-04T01:09:35.616Z,6.03
2022-11-04T01:12:03.621Z,5.53
2022-11-04T01:14:33.181Z,6.20
2022-11-04T01:17:01.418Z,7.77
2022-11-04T01:19:29.584Z,20.30
2022-11-04T01:21:57.649Z,13.93
2022-11-04T01:24:25.727Z,11.93
2022-11-04T01:26:53.902Z,17.47
2022-11-04T01:29:21.966Z,17.53
2022-11-04T01:31:51.701Z,19.20
2022-11-04T01:34:19.728Z,19.43
2022-11-04T01:36:47.940Z,20.20
2022-11-04T01:39:16.121Z,19.50
2022-11-04T01:41:44.333Z,12.80
2022-11-04T01:45:01.299Z,13.20
2022-11-04T01:47:36.006Z,9.43
2022-11-04T01:50:08.430Z,9.70
2022-11-04T01:52:39.870Z,11.87
2022-11-04T01:55:11.513Z,9.20
2022-11-04T01:57:43.402Z,8.93
2022-11-04T02:00:13.561Z,8.67
2022-11-04T02:02:52.285Z,7.83
2022-11-04T02:05:20.642Z,6.90
2022-11-04T02:07:52.190Z,7.30
2022-11-04T02:10:22.703Z,7.83
2022-11-04T02:12:49.882Z,6.13
2022-11-04T02:15:20.173Z,6.70
2022-11-04T02:18:15.145Z,7.30
2022-11-04T02:21:01.333Z,6.63
2022-11-04T02:23:52.733Z,5.90
2022-11-04T02:27:04.926Z,7.07
2022-11-04T02:29:51.430Z,6.50
2022-11-04T02:32:25.777Z,6.23
2022-11-04T02:35:04.930Z,6.20
2022-11-04T02:37:43.157Z,5.67
2022-11-04T02:40:21.085Z,5.97
2022-11-04T02:42:54.918Z,7.07
2022-11-04T02:45:26.136Z,6.37
2022-11-04T02:47:58.456Z,5.60
2022-11-04T02:50:34.314Z,6.20
2022-11-04T02:53:06.830Z,5.13
2022-11-04T02:55:36.981Z,5.93
2022-11-04T02:58:08.262Z,5.83
2022-11-04T03:00:38.493Z,5.80
2022-11-04T03:03:09.803Z,5.00
2022-11-04T03:05:40.226Z,5.83
2022-11-04T03:08:11.678Z,6.47
2022-11-04T03:10:43.208Z,5.77
2022-11-04T03:13:13.981Z,5.90
2022-11-04T03:15:50.026Z,6.03
2022-11-04T03:18:24.523Z,6.00
2022-11-04T03:20:53.118Z,5.23
2022-11-04T03:23:21.251Z,5.60
2022-11-04T03:25:52.531Z,6.47
2022-11-04T03:28:27.271Z,5.00
2022-11-04T03:31:00.579Z,6.93
2022-11-04T03:33:34.201Z,6.37
2022-11-04T03:36:03.144Z,7.00
2022-11-04T03:38:31.460Z,6.87
2022-11-04T03:41:01.167Z,8.77
2022-11-04T03:43:29.766Z,10.10
2022-11-04T03:45:59.440Z,7.87
2022-11-04T03:48:28.131Z,6.57
2022-11-04T03:50:56.236Z,6.13
2022-11-04T03:56:11.444Z,9.33
2022-11-04T03:58:45.568Z,8.13
2022-11-04T04:01:31.683Z,9.57
2022-11-04T04:04:02.683Z,9.70
2022-11-04T04:06:32.715Z,7.77
2022-11-04T04:09:05.774Z,10.10
2022-11-04T04:11:40.820Z,9.70
2022-11-04T04:14:36.746Z,8.80
2022-11-04T04:19:38.216Z,11.07
2022-11-04T04:22:11.011Z,10.37
2022-11-04T04:24:58.933Z,11.63
2022-11-04T04:27:33.062Z,10.90
2022-11-04T04:30:03.674Z,10.63
2022-11-04T04:32:36.775Z,14.20
2022-11-04T04:35:22.775Z,15.20
2022-11-04T04:37:51.863Z,14.30
2022-11-04T04:40:39.286Z,15.23
2022-11-04T04:43:25.087Z,14.63
2022-11-04T04:45:55.219Z,15.53
2022-11-04T04:48:24.718Z,15.67
2022-11-04T04:50:56.958Z,13.00
2022-11-04T04:53:25.049Z,15.50
2022-11-04T04:55:53.085Z,15.53
2022-11-04T04:58:21.279Z,13.40
2022-11-04T05:00:49.466Z,13.93
2022-11-04T05:03:17.655Z,14.00
2022-11-04T05:05:47.118Z,12.70
2022-11-04T05:08:15.233Z,13.70
2022-11-04T05:10:43.258Z,14.60
2022-11-04T05:13:30.641Z,13.30
2022-11-04T05:15:58.807Z,12.70
2022-11-04T05:18:26.920Z,12.40
2022-11-04T05:20:56.318Z,12.90
2022-11-04T05:23:24.355Z,15.30
2022-11-04T05:25:52.348Z,12.57
2022-11-04T05:28:20.315Z,14.37
2022-11-04T05:30:48.298Z,15.03
2022-11-04T05:33:16.304Z,12.40
2022-11-04T05:35:44.323Z,15.50
2022-11-04T05:38:13.819Z,11.80
2022-11-04T05:40:41.841Z,13.90
2022-11-04T05:43:10.091Z,14.47
2022-11-04T05:45:38.434Z,13.00
2022-11-04T05:48:06.880Z,13.07
2022-11-04T05:50:35.097Z,11.80
2022-11-04T05:53:03.247Z,12.97
2022-11-04T05:55:32.686Z,12.90
2022-11-04T05:58:00.751Z,10.10
2022-11-04T06:00:29.290Z,12.70
2022-11-04T06:02:58.720Z,11.67
2022-11-04T06:05:29.320Z,11.50
2022-11-04T06:07:58.340Z,12.50
2022-11-04T06:10:26.793Z,12.43
2022-11-04T06:12:56.221Z,12.47
2022-11-04T06:15:24.366Z,13.03
2022-11-04T06:17:52.641Z,13.13
2022-11-04T06:20:21.186Z,12.60
2022-11-04T06:22:49.254Z,12.73
2022-11-04T06:25:17.465Z,11.77
2022-11-04T06:27:45.766Z,12.00
2022-11-04T06:30:15.414Z,11.70
2022-11-04T06:32:43.568Z,13.30
2022-11-04T06:35:11.605Z,14.70
2022-11-04T06:37:39.689Z,13.77
2022-11-04T06:40:09.299Z,13.53
2022-11-04T06:42:37.426Z,12.80
2022-11-04T06:45:06.145Z,11.03
2022-11-04T06:47:35.843Z,7.83
2022-11-04T06:50:08.311Z,10.47
2022-11-04T06:52:41.946Z,6.97
2022-11-04T06:55:11.172Z,7.17
2022-11-04T06:57:39.342Z,7.10
2022-11-04T07:00:09.101Z,6.10
2022-11-04T07:02:39.124Z,7.40
2022-11-04T07:05:09.069Z,5.90
2022-11-04T07:07:41.488Z,5.20
2022-11-04T07:10:11.754Z,6.60
2022-11-04T07:12:40.011Z,6.23
2022-11-04T07:15:09.300Z,5.90
2022-11-04T07:17:38.756Z,6.67
2022-11-04T07:20:07.824Z,6.40
2022-11-04T07:22:35.926Z,6.23
2022-11-04T07:25:04.457Z,6.33
2022-11-04T07:27:32.566Z,5.43
2022-11-04T07:30:00.713Z,5.93
2022-11-04T07:32:29.070Z,5.57
2022-11-04T07:34:58.531Z,5.87
2022-11-04T07:37:26.934Z,6.33
2022-11-04T07:39:55.123Z,6.77
2022-11-04T07:42:23.112Z,6.30
2022-11-04T07:44:51.087Z,6.73
2022-11-04T07:47:19.113Z,5.37
2022-11-04T07:49:47.160Z,6.57
2022-11-04T07:52:16.727Z,5.30
2022-11-04T07:54:44.787Z,5.57
2022-11-04T07:57:12.851Z,5.73
2022-11-04T07:59:41.256Z,4.10
2022-11-04T08:02:11.342Z,5.50
2022-11-04T08:04:40.697Z,5.97
2022-11-04T08:07:09.845Z,5.10
2022-11-04T08:09:39.365Z,4.60
2022-11-04T08:12:08.074Z,5.13
2022-11-04T08:14:36.251Z,5.40
2022-11-04T08:17:04.991Z,4.37
2022-11-04T08:19:33.324Z,4.60
2022-11-04T08:26:26.025Z,5.23
2022-11-04T08:29:28.845Z,4.43
2022-11-04T08:32:17.565Z,4.20
2022-11-04T08:34:57.639Z,3.70
2022-11-04T08:37:25.707Z,4.60
2022-11-04T08:39:53.832Z,6.80
2022-11-04T08:42:23.319Z,5.13
2022-11-04T08:44:52.681Z,3.13
2022-11-04T08:47:20.866Z,3.83
2022-11-04T08:49:49.284Z,2.10
2022-11-04T08:52:18.028Z,3.03
2022-11-04T08:54:46.049Z,2.20
2022-11-04T08:57:14.620Z,2.20
2022-11-04T08:59:44.093Z,3.07
2022-11-04T09:02:15.646Z,5.37
2022-11-04T09:04:44.327Z,3.87
2022-11-04T09:07:13.530Z,2.97
2022-11-04T09:09:42.508Z,2.20
2022-11-04T09:12:11.377Z,2.40
2022-11-04T09:14:39.577Z,1.60
2022-11-04T09:17:08.993Z,1.47
2022-11-04T09:19:37.047Z,1.30
2022-11-04T09:22:05.228Z,1.70
2022-11-04T09:24:33.283Z,1.37
2022-11-04T09:27:01.487Z,2.43
2022-11-04T09:29:33.620Z,1.97
2022-11-04T09:32:02.378Z,1.20
2022-11-04T09:34:32.279Z,1.17
2022-11-04T09:37:01.059Z,0.80
2022-11-04T09:39:29.189Z,1.00
2022-11-04T09:42:19.825Z,1.30
2022-11-04T09:45:21.087Z,2.67
2022-11-04T09:47:40.839Z,1.60
2022-11-04T09:50:19.967Z,1.83
2022-11-04T09:52:51.215Z,1.57
2022-11-04T09:55:22.506Z,1.37
2022-11-04T09:57:55.817Z,1.27
2022-11-04T10:00:24.096Z,0.70
2022-11-04T10:03:03.153Z,0.60
2022-11-04T10:05:46.485Z,0.90
2022-11-04T10:08:33.903Z,1.40
2022-11-04T10:11:09.955Z,1.03
2022-11-04T10:13:48.032Z,0.80
2022-11-04T10:16:25.607Z,0.60
2022-11-04T10:19:17.153Z,0.80
2022-11-04T10:22:06.049Z,0.80
2022-11-04T10:24:43.528Z,0.70
2022-11-04T10:27:16.966Z,0.73
2022-11-04T10:29:46.908Z,1.03
2022-11-04T10:32:22.356Z,0.67
2022-11-04T10:34:58.219Z,0.60
2022-11-04T10:37:30.885Z,0.90
2022-11-04T10:40:05.233Z,1.10
2022-11-04T10:42:33.877Z,0.97
2022-11-04T10:45:02.283Z,0.87
2022-11-04T10:47:38.875Z,0.60
2022-11-04T10:50:29.465Z,0.60
2022-11-04T10:53:11.833Z,0.93
2022-11-04T10:55:46.189Z,0.80
2022-11-04T10:58:19.744Z,3.27
2022-11-04T11:00:48.345Z,1.80
2022-11-04T11:03:32.372Z,1.87
2022-11-04T11:06:16.898Z,2.33
2022-11-04T11:08:48.039Z,1.40
2022-11-04T11:11:17.436Z,0.90
2022-11-04T11:13:46.820Z,0.70
2022-11-04T11:16:19.641Z,1.10
2022-11-04T11:19:15.093Z,0.93
2022-11-04T11:21:48.871Z,0.80
2022-11-04T11:24:21.560Z,1.50
2022-11-04T11:26:50.980Z,0.83
2022-11-04T11:29:23.125Z,0.70
2022-11-04T11:31:52.969Z,0.80
2022-11-04T11:34:26.434Z,0.80
2022-11-04T11:36:55.894Z,0.77
2022-11-04T11:39:28.818Z,1.00
2022-11-04T11:41:59.542Z,1.13
2022-11-04T11:44:33.138Z,0.80
2022-11-04T11:47:04.511Z,1.33
2022-11-04T11:49:34.575Z,0.87
2022-11-04T11:52:26.335Z,0.90
2022-11-04T11:55:03.196Z,0.67
2022-11-04T11:57:37.419Z,0.80
2022-11-04T12:03:01.649Z,0.90
2022-11-04T12:11:38.748Z,0.73
2022-11-04T12:14:07.677Z,1.17
2022-11-04T12:16:41.715Z,0.70
2022-11-04T12:19:17.933Z,0.67
2022-11-04T12:21:48.895Z,0.80
2022-11-04T12:24:28.655Z,0.87
2022-11-04T12:27:03.849Z,0.60
2022-11-04T12:29:41.107Z,0.80
2022-11-04T12:32:15.056Z,0.80
2022-11-04T12:34:54.551Z,0.77
2022-11-04T12:37:30.025Z,0.90
2022-11-04T12:40:08.705Z,0.87
2022-11-04T12:42:46.464Z,1.10
2022-11-04T12:45:26.147Z,0.70
2022-11-04T12:47:57.426Z,0.67
2022-11-04T12:50:38.821Z,0.60
2022-11-04T12:53:18.434Z,0.77
2022-11-04T12:55:53.173Z,0.60
2022-11-04T12:58:40.554Z,1.10
2022-11-04T13:01:15.255Z,0.80
2022-11-04T13:03:49.092Z,1.13
2022-11-04T13:06:19.070Z,0.70
2022-11-04T13:08:51.193Z,0.67
2022-11-04T13:11:24.489Z,0.77
2022-11-04T13:14:02.021Z,0.70
2022-11-04T13:16:31.943Z,0.60
2022-11-04T13:19:00.860Z,0.60
2022-11-04T13:21:32.320Z,0.60
2022-11-04T13:24:04.387Z,0.50
2022-11-04T13:26:34.171Z,0.60
2022-11-04T13:29:09.267Z,0.50
2022-11-04T13:31:48.056Z,0.50
2022-11-04T13:34:23.883Z,0.50
2022-11-04T13:36:57.978Z,0.73
2022-11-04T13:39:29.345Z,0.57
2022-11-04T13:42:24.688Z,0.50
2022-11-04T13:44:58.076Z,0.50
2022-11-04T13:47:28.139Z,0.60
2022-11-04T13:49:57.366Z,0.60
2022-11-04T13:52:28.306Z,0.67
2022-11-04T13:54:59.545Z,0.70
2022-11-04T13:57:29.173Z,0.50
2022-11-04T14:00:27.102Z,0.60
2022-11-04T14:02:57.843Z,0.50
2022-11-04T14:06:03.471Z,0.50
2022-11-04T14:08:31.917Z,0.70
2022-11-04T14:11:11.331Z,0.53
2022-11-04T14:14:03.579Z,0.60
2022-11-04T14:16:47.164Z,0.60
2022-11-04T14:19:57.211Z,0.60
2022-11-04T14:22:33.799Z,0.50
2022-11-04T14:25:03.938Z,0.50
2022-11-04T14:27:41.109Z,0.50
2022-11-04T14:30:33.202Z,0.80
2022-11-04T14:33:04.165Z,0.70
2022-11-04T14:35:32.903Z,0.60
2022-11-04T14:38:08.243Z,0.50
2022-11-04T14:40:48.674Z,0.50
2022-11-04T14:43:35.042Z,0.57
2022-11-04T14:46:07.352Z,0.57
2022-11-04T14:48:37.075Z,0.50
2022-11-04T14:51:05.673Z,0.50
2022-11-04T14:53:35.332Z,0.60
2022-11-04T14:56:08.445Z,0.70
2022-11-04T14:58:37.619Z,0.87
2022-11-04T15:01:07.705Z,0.70
2022-11-04T15:04:10.875Z,2.27
2022-11-04T15:06:40.587Z,1.23
2022-11-04T15:09:24.048Z,0.60
2022-11-04T15:12:11.162Z,0.63
2022-11-04T15:14:39.323Z,0.60
2022-11-04T15:17:07.381Z,0.50
2022-11-04T15:19:38.093Z,0.60
2022-11-04T15:22:07.716Z,2.17
2022-11-04T15:24:36.365Z,0.90
2022-11-04T15:27:06.937Z,0.50
2022-11-04T15:29:35.109Z,0.70
2022-11-04T15:32:05.441Z,1.00
2022-11-04T15:34:35.175Z,0.80
2022-11-04T15:37:06.396Z,5.00
2022-11-04T15:39:37.694Z,1.80
2022-11-04T15:42:25.381Z,1.20
2022-11-04T15:44:55.758Z,1.10
2022-11-04T15:47:25.204Z,1.00
2022-11-04T15:49:54.831Z,1.00
2022-11-04T15:52:25.937Z,0.93
2022-11-04T15:54:55.314Z,1.10
2022-11-04T15:57:25.472Z,1.17
2022-11-04T16:00:01.592Z,1.27
2022-11-04T16:02:31.138Z,1.27
2022-11-04T16:05:08.354Z,0.97
2022-11-04T16:07:40.818Z,1.20
2022-11-04T16:10:31.749Z,1.33
2022-11-04T16:13:02.690Z,1.23
2022-11-04T16:15:33.416Z,2.00
2022-11-04T16:18:01.848Z,2.03
2022-11-04T16:20:31.068Z,2.67
2022-11-04T16:23:03.201Z,2.23
2022-11-04T16:25:33.505Z,1.70
2022-11-04T16:28:01.844Z,1.20
2022-11-04T16:30:30.233Z,1.50
2022-11-04T16:33:10.556Z,1.50
2022-11-04T16:35:42.640Z,1.10
2022-11-04T16:38:13.080Z,1.40
2022-11-04T16:40:41.544Z,1.50
2022-11-04T17:05:14.685Z,2.03
2022-11-04T17:07:53.632Z,2.37
2022-11-04T17:10:31.434Z,2.03
2022-11-04T17:13:09.599Z,1.87
2022-11-04T17:16:13.657Z,1.93
2022-11-04T17:19:00.009Z,2.27
2022-11-04T17:21:38.398Z,2.20
2022-11-04T17:24:11.479Z,2.30
2022-11-04T17:29:39.800Z,2.40
2022-11-04T17:32:16.749Z,2.70
2022-11-04T17:34:47.889Z,3.10
2022-11-04T17:37:24.037Z,2.40
2022-11-04T17:39:52.411Z,3.13
2022-11-04T17:42:38.243Z,3.90
2022-11-04T17:45:07.850Z,3.70
2022-11-04T17:47:37.515Z,2.83
2022-11-04T17:50:08.463Z,2.53
2022-11-04T17:52:40.096Z,2.70
2022-11-04T17:55:15.445Z,3.27
2022-11-04T17:57:45.812Z,3.07
2022-11-04T18:00:16.339Z,2.77
2022-11-04T18:02:44.786Z,2.77
2022-11-04T18:05:13.525Z,3.03
2022-11-04T18:07:43.765Z,3.90
2022-11-04T18:10:13.031Z,3.20
2022-11-04T18:12:42.047Z,4.00
2022-11-04T18:15:12.918Z,4.37
2022-11-04T18:17:43.622Z,3.50
2022-11-04T18:20:15.787Z,3.87
2022-11-04T18:22:47.449Z,4.80
2022-11-04T18:25:16.178Z,5.00
2022-11-04T18:27:44.980Z,5.27
2022-11-04T18:30:16.071Z,3.97
2022-11-04T18:32:44.591Z,4.30
2022-11-04T18:35:15.331Z,4.10
2022-11-04T18:37:47.529Z,3.30
2022-11-04T18:40:16.383Z,4.10
2022-11-04T18:42:48.865Z,4.50
2022-11-04T18:45:17.993Z,4.43
2022-11-04T18:47:49.115Z,4.17
2022-11-04T18:50:18.106Z,4.30
2022-11-04T18:52:51.376Z,4.73
2022-11-04T18:55:20.595Z,5.20
2022-11-04T18:57:55.926Z,6.23
2022-11-04T19:00:24.415Z,6.50
2022-11-04T19:02:53.156Z,5.43
2022-11-04T19:05:21.991Z,7.23
2022-11-04T19:07:51.975Z,5.90
2022-11-04T19:10:23.306Z,7.40
2022-11-04T19:13:09.437Z,6.70
2022-11-04T19:15:37.773Z,5.43
2022-11-04T19:18:12.103Z,5.50
2022-11-04T19:20:59.601Z,5.07
2022-11-04T19:23:31.936Z,4.20
2022-11-04T19:26:02.380Z,3.60
2022-11-04T19:28:46.852Z,3.80
2022-11-04T19:31:17.321Z,5.10
2022-11-04T19:33:45.979Z,4.20
2022-11-04T19:36:15.568Z,4.40
2022-11-04T19:38:56.696Z,4.13
2022-11-04T19:42:03.110Z,3.07
2022-11-04T19:44:33.069Z,4.10
2022-11-04T19:47:01.463Z,3.90
2022-11-04T19:49:31.622Z,4.30
2022-11-04T19:51:59.978Z,2.93
2022-11-04T19:54:29.876Z,3.93
2022-11-04T19:56:58.182Z,4.17
2022-11-04T19:59:26.786Z,4.57
2022-11-04T20:01:55.148Z,5.60
2022-11-04T20:04:23.655Z,4.83
2022-11-04T20:06:51.893Z,5.10
2022-11-04T20:09:22.488Z,6.00
2022-11-04T20:12:09.797Z,6.33
2022-11-04T20:14:38.500Z,6.00
2022-11-04T20:17:07.480Z,7.27
2022-11-04T20:19:38.421Z,6.97
2022-11-04T20:22:10.772Z,6.50
2022-11-04T20:24:39.286Z,6.53
2022-11-04T20:27:09.124Z,6.00
2022-11-04T20:29:37.334Z,6.70
2022-11-04T20:32:06.323Z,7.10
2022-11-04T20:34:34.924Z,7.00
2022-11-04T20:37:03.587Z,6.10
2022-11-04T20:39:32.459Z,6.70
2022-11-04T20:42:00.747Z,6.70
2022-11-04T20:44:30.224Z,6.83
2022-11-04T20:46:58.522Z,8.30
2022-11-04T20:49:26.817Z,7.53
2022-11-04T20:51:56.650Z,7.73
2022-11-04T20:54:25.411Z,7.80
2022-11-04T20:56:53.612Z,7.03
2022-11-04T20:59:21.930Z,6.13
2022-11-04T21:01:51.739Z,6.97
2022-11-04T21:04:21.999Z,8.00
2022-11-04T21:06:51.809Z,6.40
2022-11-04T21:09:21.450Z,7.20
2022-11-04T21:11:50.352Z,7.20
2022-11-04T21:14:19.749Z,7.17
2022-11-04T21:16:48.486Z,6.33
2022-11-04T21:19:18.103Z,6.87
2022-11-04T21:21:47.650Z,6.20
2022-11-04T21:24:16.965Z,6.57
2022-11-04T21:26:45.701Z,5.77
2022-11-04T21:29:15.471Z,5.90
2022-11-04T21:31:44.066Z,8.07
2022-11-04T21:34:12.865Z,7.00
2022-11-04T21:36:42.578Z,6.63
2022-11-04T21:39:13.007Z,6.83
2022-11-04T21:41:41.377Z,6.13
2022-11-04T21:44:11.827Z,6.43
2022-11-04T21:46:40.080Z,5.90
2022-11-04T21:49:08.326Z,5.97
2022-11-04T21:51:36.839Z,7.87
2022-11-04T21:54:09.001Z,5.63
2022-11-04T21:56:37.856Z,11.80
2022-11-04T21:59:06.682Z,11.67
2022-11-04T22:01:34.942Z,13.80
2022-11-04T22:04:03.724Z,15.70
2022-11-04T22:06:35.318Z,28.00
2022-11-04T22:09:06.471Z,19.80
2022-11-04T22:11:39.973Z,21.03
2022-11-04T22:14:12.803Z,16.27
2022-11-04T22:16:41.783Z,11.43
2022-11-04T22:19:13.811Z,8.30
2022-11-04T22:21:46.384Z,12.27
2022-11-04T22:24:17.282Z,7.47
2022-11-04T22:26:46.120Z,7.57
2022-11-04T22:29:14.588Z,8.03
2022-11-04T22:31:44.743Z,9.17
2022-11-04T22:34:13.631Z,12.43
2022-11-04T22:36:44.767Z,14.20
2022-11-04T22:39:16.812Z,22.20
2022-11-04T22:41:48.066Z,23.33
2022-11-04T22:44:16.518Z,21.20
2022-11-04T22:46:47.477Z,20.07
2022-11-04T22:49:15.815Z,14.77
2022-11-04T22:51:43.975Z,12.27
2022-11-04T22:54:12.322Z,7.40
2022-11-04T22:56:40.826Z,5.17
2022-11-04T22:59:11.627Z,4.57
2022-11-04T23:01:43.122Z,5.27
2022-11-04T23:04:14.715Z,3.90
2022-11-04T23:06:44.055Z,4.10
2022-11-04T23:09:15.134Z,4.87
2022-11-04T23:12:01.170Z,4.00
2022-11-04T23:14:48.450Z,4.20
2022-11-04T23:17:36.374Z,3.47
2022-11-04T23:20:07.552Z,4.60
2022-11-04T23:23:01.443Z,8.60
2022-11-04T23:25:29.987Z,7.07
2022-11-04T23:31:12.491Z,7.67
2022-11-04T23:33:59.288Z,7.00
2022-11-04T23:36:44.670Z,5.67
2022-11-04T23:39:12.834Z,5.80
2022-11-04T23:41:58.818Z,5.87
2022-11-04T23:44:44.066Z,9.90
2022-11-04T23:47:29.785Z,11.20
2022-11-04T23:50:16.839Z,10.93
2022-11-04T23:53:02.517Z,10.90
2022-11-04T23:55:48.178Z,11.40
2022-11-04T23:58:33.552Z,12.90
